Time;durP1;ratioP1;P1;durP2;ratioP2;P2;SDS_P1;SDS_P2;PMS_P1;PMS_P2;Temp;Humidity;BMP_temperature;BMP_pressure;BME280_temperature;BME280_humidity;BME280_pressure;Samples;Min_cycle;Max_cycle;Signal;HPM_P1;HPM_P2
2024/04/05 00:01:36;;;;;;;15.07;2.33;;;10.50;99.90;;;;;;6117945;23;20060;-80
2024/04/05 00:04:05;;;;;;;11.48;1.65;;;10.50;99.90;;;;;;6179298;23;20028;-85
2024/04/05 00:06:31;;;;;;;16.48;1.67;;;10.50;99.90;;;;;;6118599;23;20013;-87
2024/04/05 00:08:57;;;;;;;18.73;2.85;;;10.50;99.90;;;;;;6146280;23;20012;-80
2024/04/05 00:11:24;;;;;;;18.85;2.42;;;10.60;99.90;;;;;;6118382;23;20451;-83
2024/04/05 00:13:50;;;;;;;17.08;2.25;;;10.50;99.90;;;;;;6179805;23;20327;-87
2024/04/05 00:16:17;;;;;;;19.42;2.45;;;10.50;99.90;;;;;;6168382;23;20032;-87
2024/04/05 00:18:43;;;;;;;16.77;2.08;;;10.60;99.90;;;;;;6142580;23;20009;-85
2024/04/05 00:21:10;;;;;;;11.88;2.13;;;10.60;99.90;;;;;;6177497;23;20364;-83
2024/04/05 00:23:37;;;;;;;14.32;2.33;;;10.60;99.90;;;;;;6192744;23;20024;-85
2024/04/05 00:26:05;;;;;;;17.75;3.20;;;10.60;99.90;;;;;;6143589;23;20024;-86
2024/04/05 00:28:33;;;;;;;16.15;1.95;;;10.60;99.90;;;;;;6118889;23;20017;-85
2024/04/05 00:30:59;;;;;;;16.75;2.35;;;10.60;99.90;;;;;;6152274;23;20013;-85
2024/04/05 00:33:26;;;;;;;20.98;2.42;;;10.60;99.90;;;;;;6203087;23;20005;-89
2024/04/05 00:35:54;;;;;;;16.40;2.60;;;10.70;99.90;;;;;;6153903;23;20021;-85
2024/04/05 00:38:23;;;;;;;15.07;1.98;;;10.70;99.90;;;;;;6143169;23;20013;-89
2024/04/05 00:40:50;;;;;;;20.77;3.15;;;10.80;99.90;;;;;;6117164;23;20331;-84
2024/04/05 00:43:16;;;;;;;21.90;3.03;;;10.80;99.90;;;;;;6118521;23;20013;-86
2024/04/05 00:45:47;;;;;;;19.33;2.22;;;10.90;99.90;;;;;;6118115;23;20017;-90
2024/04/05 00:48:22;;;;;;;19.38;3.45;;;10.90;99.90;;;;;;6119087;23;20017;-87
2024/04/05 00:50:52;;;;;;;16.30;3.00;;;10.90;99.90;;;;;;6154600;23;20020;-84
2024/04/05 00:53:22;;;;;;;12.75;1.77;;;10.90;99.90;;;;;;6126033;23;20013;-86
2024/04/05 00:55:48;;;;;;;17.00;2.47;;;10.90;99.90;;;;;;6159160;23;20867;-83
2024/04/05 00:58:16;;;;;;;12.95;2.00;;;10.90;99.90;;;;;;6146586;23;20602;-84
2024/04/05 01:00:42;;;;;;;20.80;2.97;;;10.90;99.90;;;;;;6130272;23;20020;-86
2024/04/05 01:03:09;;;;;;;25.90;3.00;;;10.90;99.90;;;;;;6179921;23;20005;-87
2024/04/05 01:05:38;;;;;;;19.88;2.58;;;10.90;99.90;;;;;;6153415;23;20016;-83
2024/04/05 01:08:09;;;;;;;15.38;2.70;;;11.00;99.90;;;;;;6142943;23;20017;-84
2024/04/05 01:10:36;;;;;;;17.08;2.25;;;11.10;99.90;;;;;;6117834;23;20530;-87
2024/04/05 01:13:04;;;;;;;13.65;2.90;;;11.10;99.90;;;;;;6143138;23;20016;-79
2024/04/05 01:15:33;;;;;;;14.35;2.15;;;11.20;99.90;;;;;;6118020;23;20027;-83
2024/04/05 01:18:02;;;;;;;23.08;3.58;;;11.20;99.90;;;;;;6142690;23;20017;-85
2024/04/05 01:20:33;;;;;;;17.27;1.92;;;11.30;99.90;;;;;;6128302;23;20005;-87
2024/04/05 01:23:01;;;;;;;16.58;2.42;;;11.30;99.90;;;;;;6128342;23;20009;-84
2024/04/05 01:25:27;;;;;;;17.08;2.47;;;11.30;99.90;;;;;;6152568;23;20028;-85
2024/04/05 01:27:56;;;;;;;18.73;2.53;;;11.40;99.90;;;;;;6129025;23;20005;-86
2024/04/05 01:30:23;;;;;;;15.73;2.42;;;11.40;99.90;;;;;;6144955;23;20012;-80
2024/04/05 01:32:53;;;;;;;15.07;2.22;;;11.40;99.90;;;;;;6178934;23;20020;-85
2024/04/05 01:35:20;;;;;;;16.02;2.42;;;11.40;99.90;;;;;;6152750;23;20016;-83
2024/04/05 01:37:46;;;;;;;16.33;2.42;;;11.40;99.90;;;;;;6141380;23;20032;-83
2024/04/05 01:40:13;;;;;;;11.75;1.77;;;11.40;99.90;;;;;;6178908;23;20029;-82
2024/04/05 01:42:39;;;;;;;16.15;2.28;;;11.40;99.90;;;;;;6119588;23;20013;-84
2024/04/05 01:45:06;;;;;;;19.02;2.65;;;11.50;99.90;;;;;;6154466;23;20009;-83
2024/04/05 01:47:32;;;;;;;11.32;1.70;;;11.50;99.90;;;;;;6119051;23;20017;-84
2024/04/05 01:49:58;;;;;;;17.08;2.53;;;11.50;99.90;;;;;;6178178;23;20338;-85
2024/04/05 01:52:25;;;;;;;16.38;1.83;;;11.60;99.90;;;;;;6119547;23;20020;-85
2024/04/05 01:54:52;;;;;;;13.85;1.77;;;11.60;99.90;;;;;;6178049;23;20016;-80
2024/04/05 01:57:19;;;;;;;15.05;2.45;;;11.60;99.90;;;;;;6153373;23;20104;-86
2024/04/05 01:59:49;;;;;;;12.65;2.50;;;11.60;99.90;;;;;;6118326;23;20020;-85
2024/04/05 02:02:16;;;;;;;14.50;2.80;;;11.60;99.90;;;;;;6154638;23;20008;-83
2024/04/05 02:04:43;;;;;;;15.30;2.33;;;11.60;99.90;;;;;;6118975;23;20024;-84
2024/04/05 02:07:09;;;;;;;14.77;1.98;;;11.60;99.90;;;;;;6143821;23;20012;-80
2024/04/05 02:09:36;;;;;;;13.73;2.15;;;11.60;99.90;;;;;;6143437;23;20459;-84
2024/04/05 02:12:03;;;;;;;18.92;2.38;;;11.60;99.90;;;;;;6153445;23;20012;-88
2024/04/05 02:14:29;;;;;;;11.63;2.08;;;11.60;99.90;;;;;;6143972;23;20005;-85
2024/04/05 02:16:58;;;;;;;10.43;1.83;;;11.60;99.90;;;;;;6153549;23;20023;-80
2024/04/05 02:19:24;;;;;;;9.80;1.45;;;11.60;99.90;;;;;;6152977;23;20442;-82
2024/04/05 02:21:51;;;;;;;10.82;2.05;;;11.60;99.90;;;;;;6142443;23;20025;-83
2024/04/05 02:24:17;;;;;;;10.13;1.25;;;11.60;99.90;;;;;;6143470;23;20013;-80
2024/04/05 02:26:43;;;;;;;13.50;1.67;;;11.60;99.90;;;;;;6178474;23;20340;-85
2024/04/05 02:29:10;;;;;;;12.38;1.83;;;11.60;99.90;;;;;;6149948;23;20020;-85
2024/04/05 02:31:36;;;;;;;10.35;1.83;;;11.50;99.90;;;;;;6152407;23;20016;-85
2024/04/05 02:34:03;;;;;;;9.15;1.80;;;11.50;99.90;;;;;;6118724;23;20005;-86
2024/04/05 02:36:30;;;;;;;11.63;1.30;;;11.50;99.90;;;;;;6143586;23;20020;-86
2024/04/05 02:38:56;;;;;;;7.65;1.30;;;11.40;99.90;;;;;;6117489;23;20020;-87
2024/04/05 02:41:23;;;;;;;11.25;1.00;;;11.40;99.90;;;;;;6142284;23;20024;-78
2024/04/05 02:43:49;;;;;;;17.70;2.17;;;11.30;99.90;;;;;;6143571;23;20013;-83
2024/04/05 02:46:15;;;;;;;10.13;2.05;;;11.40;99.90;;;;;;6119040;23;20314;-83
2024/04/05 02:48:42;;;;;;;16.90;1.67;;;11.40;99.90;;;;;;6143156;23;20017;-87
2024/04/05 02:51:08;;;;;;;11.45;2.20;;;11.40;99.90;;;;;;6179929;23;20020;-88
2024/04/05 02:53:34;;;;;;;16.52;1.95;;;11.40;99.90;;;;;;6160282;23;20453;-83
2024/04/05 02:56:01;;;;;;;8.90;1.73;;;11.30;99.90;;;;;;6173647;23;20020;-81
2024/04/05 02:58:28;;;;;;;8.35;1.10;;;11.40;99.90;;;;;;6183253;23;20028;-86
2024/04/05 03:00:57;;;;;;;12.40;1.27;;;11.40;99.90;;;;;;6178326;23;20005;-87
2024/04/05 03:03:23;;;;;;;12.43;1.60;;;11.40;99.90;;;;;;6154355;23;20005;-84
2024/04/05 03:05:50;;;;;;;8.20;1.25;;;11.40;99.90;;;;;;6179563;23;20510;-87
2024/04/05 03:08:16;;;;;;;10.93;1.38;;;11.40;99.90;;;;;;6176070;23;20008;-83
2024/04/05 03:10:42;;;;;;;10.38;1.83;;;11.40;99.90;;;;;;6178522;23;20027;-83
2024/04/05 03:13:09;;;;;;;15.10;2.05;;;11.40;99.90;;;;;;6145421;23;20102;-84
2024/04/05 03:15:35;;;;;;;14.05;1.55;;;11.40;99.90;;;;;;6157109;23;20323;-80
2024/04/05 03:18:02;;;;;;;20.73;2.80;;;11.40;99.90;;;;;;6146687;23;20009;-85
2024/04/05 03:20:29;;;;;;;9.80;1.60;;;11.40;99.90;;;;;;6156078;23;20008;-88
2024/04/05 03:22:56;;;;;;;11.48;1.83;;;11.30;99.90;;;;;;6098563;23;20533;-79
2024/04/05 03:25:22;;;;;;;13.68;2.10;;;11.30;99.90;;;;;;6182756;23;20311;-87
2024/04/05 03:27:49;;;;;;;12.43;1.42;;;11.40;99.90;;;;;;6146721;23;20017;-83
2024/04/05 03:30:16;;;;;;;12.07;1.92;;;11.30;99.90;;;;;;6173524;23;20015;-85
2024/04/05 03:32:42;;;;;;;10.13;1.15;;;11.30;99.90;;;;;;6149675;23;20035;-79
2024/04/05 03:35:09;;;;;;;7.18;1.15;;;11.40;99.90;;;;;;6148359;23;20013;-83
2024/04/05 03:37:38;;;;;;;12.00;1.55;;;11.40;99.90;;;;;;6157877;23;20009;-85
2024/04/05 03:40:05;;;;;;;15.60;1.67;;;11.40;99.90;;;;;;6156841;23;19997;-85
2024/04/05 03:42:31;;;;;;;6.93;1.10;;;11.50;99.90;;;;;;6121979;23;20449;-87
2024/04/05 03:44:58;;;;;;;8.07;0.93;;;11.40;99.90;;;;;;6122455;23;20013;-88
2024/04/05 03:47:24;;;;;;;11.82;1.50;;;11.50;99.90;;;;;;6145950;23;20013;-84
2024/04/05 03:49:50;;;;;;;9.07;1.20;;;11.50;99.90;;;;;;6145925;23;20016;-83
2024/04/05 03:52:17;;;;;;;14.25;1.42;;;11.50;99.90;;;;;;6144874;23;20028;-84
2024/04/05 03:54:43;;;;;;;7.43;1.10;;;11.50;99.90;;;;;;6145076;23;20320;-82
2024/04/05 03:57:09;;;;;;;13.23;1.70;;;11.50;99.90;;;;;;6181403;23;20489;-84
2024/04/05 03:59:35;;;;;;;13.57;1.88;;;11.50;99.90;;;;;;6143862;23;20338;-86
2024/04/05 04:02:02;;;;;;;9.95;1.45;;;11.50;99.90;;;;;;6144849;23;20020;-84
2024/04/05 04:04:28;;;;;;;15.23;2.00;;;11.40;99.90;;;;;;6145145;23;20009;-81
2024/04/05 04:06:54;;;;;;;6.35;1.02;;;11.50;99.90;;;;;;6195531;23;20017;-84
2024/04/05 04:09:21;;;;;;;10.18;1.55;;;11.40;99.90;;;;;;6145648;23;20018;-88
2024/04/05 04:11:48;;;;;;;7.15;1.00;;;11.40;99.90;;;;;;6195286;23;20222;-87
2024/04/05 04:14:14;;;;;;;8.50;0.82;;;11.40;99.90;;;;;;6096072;23;20020;-86
2024/04/05 04:16:41;;;;;;;14.27;2.00;;;11.40;99.90;;;;;;6145033;23;20024;-85
2024/04/05 04:19:08;;;;;;;9.02;1.02;;;11.40;99.90;;;;;;6144669;23;20009;-87
2024/04/05 04:21:35;;;;;;;10.63;1.42;;;11.40;99.90;;;;;;6145183;23;20020;-80
2024/04/05 04:24:01;;;;;;;22.52;3.63;;;11.40;99.90;;;;;;6180161;23;20008;-83
2024/04/05 04:26:28;;;;;;;8.38;1.17;;;11.50;99.90;;;;;;6155631;23;20009;-84
2024/04/05 04:28:55;;;;;;;9.50;1.48;;;11.50;99.90;;;;;;6144214;23;20048;-79
2024/04/05 04:31:23;;;;;;;8.15;1.13;;;11.40;99.90;;;;;;6143845;23;20013;-86
2024/04/05 04:33:50;;;;;;;6.32;1.10;;;11.40;99.90;;;;;;6144210;23;20020;-85
2024/04/05 04:36:23;;;;;;;5.28;0.90;;;11.50;99.90;;;;;;6120753;23;20300;-81
2024/04/05 04:38:49;;;;;;;;;;;11.50;99.90;;;;;;6180870;23;20331;-86
2024/04/05 04:41:16;;;;;;;8.63;1.15;;;11.50;99.90;;;;;;6144353;23;19931;-86
2024/04/05 04:43:43;;;;;;;8.10;1.40;;;11.50;99.90;;;;;;6120152;23;20013;-88
2024/04/05 04:46:11;;;;;;;8.85;1.20;;;11.40;99.90;;;;;;6120934;23;20020;-84
2024/04/05 04:48:38;;;;;;;7.93;0.90;;;11.40;99.90;;;;;;6144550;23;20021;-85
2024/04/05 04:51:05;;;;;;;9.43;1.52;;;11.40;99.90;;;;;;6181260;23;20012;-85
2024/04/05 04:53:32;;;;;;;7.35;1.40;;;11.30;99.90;;;;;;6124553;23;20039;-85
2024/04/05 04:55:59;;;;;;;6.00;1.23;;;11.30;99.90;;;;;;6132727;23;20005;-85
2024/04/05 04:58:29;;;;;;;7.05;1.23;;;11.30;99.90;;;;;;6180172;23;20454;-86
2024/04/05 05:00:56;;;;;;;11.07;1.58;;;11.30;99.90;;;;;;6154205;23;20012;-88
2024/04/05 05:03:23;;;;;;;6.95;1.50;;;11.30;99.90;;;;;;6181199;23;20300;-86
2024/04/05 05:05:50;;;;;;;9.68;1.55;;;11.40;99.90;;;;;;6097026;23;20024;-85
2024/04/05 05:08:16;;;;;;;7.38;1.67;;;11.40;99.90;;;;;;6096358;23;20498;-87
2024/04/05 05:10:44;;;;;;;7.65;1.00;;;11.40;99.90;;;;;;6142438;23;20017;-86
2024/04/05 05:13:11;;;;;;;9.60;1.45;;;11.40;99.90;;;;;;6120571;23;20398;-85
2024/04/05 05:15:41;;;;;;;11.07;1.45;;;11.40;99.90;;;;;;6121133;23;20357;-85
2024/04/05 05:18:08;;;;;;;6.90;1.40;;;11.50;99.90;;;;;;6155801;23;20438;-86
2024/04/05 05:20:35;;;;;;;11.02;1.70;;;11.50;99.90;;;;;;6155923;23;20017;-87
2024/04/05 05:23:02;;;;;;;8.23;2.08;;;11.50;99.90;;;;;;6156439;23;20318;-88
2024/04/05 05:25:28;;;;;;;12.90;2.15;;;11.50;99.90;;;;;;6180174;23;20016;-84
2024/04/05 05:27:54;;;;;;;10.65;1.73;;;11.50;99.90;;;;;;6205702;23;20009;-84
2024/04/05 05:30:21;;;;;;;12.65;2.97;;;11.60;99.90;;;;;;6151634;23;20198;-85
2024/04/05 05:32:48;;;;;;;16.02;2.83;;;11.60;99.90;;;;;;6184969;23;20001;-87
2024/04/05 05:35:14;;;;;;;16.40;3.38;;;11.60;99.90;;;;;;6121202;23;20458;-84
2024/04/05 05:37:41;;;;;;;10.77;2.03;;;11.70;99.90;;;;;;6182664;23;20020;-87
2024/04/05 05:40:08;;;;;;;16.45;2.95;;;11.70;99.90;;;;;;6145079;23;20013;-83
2024/04/05 05:42:34;;;;;;;13.38;2.63;;;11.70;99.90;;;;;;6131884;23;20009;-84
2024/04/05 05:45:02;;;;;;;15.95;3.42;;;11.70;99.90;;;;;;6145539;23;20470;-84
2024/04/05 05:47:28;;;;;;;11.60;2.90;;;11.70;99.90;;;;;;6145377;23;20009;-84
2024/04/05 05:49:55;;;;;;;13.02;2.75;;;11.70;99.90;;;;;;6155061;23;20064;-84
2024/04/05 05:52:21;;;;;;;16.30;2.97;;;11.80;99.90;;;;;;6120302;23;20116;-80
2024/04/05 05:54:47;;;;;;;12.68;2.90;;;11.80;99.90;;;;;;6145627;23;20446;-84
2024/04/05 05:57:13;;;;;;;9.05;2.55;;;11.80;99.90;;;;;;6181062;23;20013;-83
2024/04/05 05:59:40;;;;;;;10.20;2.90;;;11.90;99.90;;;;;;6154822;23;20009;-83
2024/04/05 06:02:06;;;;;;;13.32;2.60;;;12.00;99.90;;;;;;6145580;23;20009;-85
2024/04/05 06:04:32;;;;;;;10.55;2.15;;;12.00;99.90;;;;;;6182236;23;20005;-81
2024/04/05 06:06:59;;;;;;;8.77;1.80;;;12.10;99.90;;;;;;6121233;23;20315;-84
2024/04/05 06:09:25;;;;;;;9.75;2.40;;;12.10;99.90;;;;;;6171314;23;20434;-82
2024/04/05 06:11:53;;;;;;;11.23;2.42;;;12.20;99.90;;;;;;6181136;23;20004;-84
2024/04/05 06:14:19;;;;;;;10.05;2.05;;;12.20;99.90;;;;;;6121152;23;20005;-82
2024/04/05 06:16:47;;;;;;;9.68;2.13;;;12.20;99.90;;;;;;6182352;23;20505;-84
2024/04/05 06:19:14;;;;;;;12.10;2.25;;;12.20;99.90;;;;;;6130126;23;20009;-83
2024/04/05 06:21:40;;;;;;;12.90;2.65;;;12.20;99.90;;;;;;6179921;23;20012;-80
2024/04/05 06:24:07;;;;;;;13.38;2.38;;;12.30;99.90;;;;;;6145260;23;20028;-84
2024/04/05 06:26:35;;;;;;;10.45;2.20;;;12.40;99.90;;;;;;6145014;23;20009;-86
2024/04/05 06:29:06;;;;;;;9.30;2.35;;;12.50;99.90;;;;;;6120174;23;20617;-83
2024/04/05 06:31:34;;;;;;;7.20;2.03;;;12.60;99.90;;;;;;6155348;23;20024;-84
2024/04/05 06:34:00;;;;;;;6.90;1.75;;;12.70;99.90;;;;;;6181950;23;20002;-82
2024/04/05 06:36:28;;;;;;;12.50;2.88;;;12.70;99.90;;;;;;6180605;23;20350;-84
2024/04/05 06:38:54;;;;;;;12.15;2.78;;;12.80;99.90;;;;;;6145230;23;20331;-79
2024/04/05 06:41:20;;;;;;;11.10;2.38;;;12.90;99.90;;;;;;6181185;23;20330;-85
2024/04/05 06:43:47;;;;;;;10.32;2.20;;;12.90;99.90;;;;;;6145380;23;20020;-81
2024/04/05 06:46:14;;;;;;;7.47;1.55;;;13.00;99.90;;;;;;6181358;23;20027;-85
2024/04/05 06:48:41;;;;;;;10.68;1.50;;;13.10;99.90;;;;;;6121219;23;20013;-81
2024/04/05 06:51:11;;;;;;;11.15;1.73;;;13.20;99.90;;;;;;6098597;23;20513;-85
2024/04/05 06:53:40;;;;;;;8.30;1.52;;;13.20;99.90;;;;;;6157495;23;20009;-81
2024/04/05 06:56:07;;;;;;;7.72;1.65;;;13.30;99.90;;;;;;6170730;23;20009;-80
2024/04/05 06:58:33;;;;;;;5.85;1.30;;;13.30;99.90;;;;;;6120027;23;20391;-79
2024/04/05 07:01:01;;;;;;;5.93;1.10;;;13.30;99.90;;;;;;6145840;23;20397;-82
2024/04/05 07:03:28;;;;;;;8.38;1.65;;;13.40;99.90;;;;;;6180413;23;20005;-83
2024/04/05 07:06:03;;;;;;;12.70;1.40;;;13.40;99.90;;;;;;6096008;23;20013;-80
2024/04/05 07:08:30;;;;;;;8.73;1.95;;;13.50;99.90;;;;;;6144017;23;20472;-84
2024/04/05 07:10:57;;;;;;;7.88;1.67;;;13.60;99.90;;;;;;6120057;23;20015;-82
2024/04/05 07:13:25;;;;;;;9.57;2.10;;;13.70;99.90;;;;;;6156676;23;20012;-85
2024/04/05 07:15:52;;;;;;;7.05;1.80;;;13.70;99.90;;;;;;6145645;23;20013;-86
2024/04/05 07:18:24;;;;;;;10.02;1.83;;;13.80;99.90;;;;;;6154807;23;20016;-85
2024/04/05 07:20:51;;;;;;;11.15;2.10;;;13.80;99.90;;;;;;6119885;23;20023;-85
2024/04/05 07:23:18;;;;;;;7.70;1.50;;;13.90;99.90;;;;;;6121163;23;20429;-87
2024/04/05 07:25:44;;;;;;;7.25;1.48;;;14.00;99.90;;;;;;6120987;23;20009;-84
2024/04/05 07:28:11;;;;;;;9.85;1.98;;;14.00;99.90;;;;;;6181919;23;20001;-80
2024/04/05 07:30:38;;;;;;;12.95;3.22;;;14.10;99.90;;;;;;6121101;23;20696;-84
2024/04/05 07:33:04;;;;;;;8.18;2.10;;;14.20;99.90;;;;;;6146848;23;20020;-84
2024/04/05 07:35:31;;;;;;;10.20;2.45;;;14.20;99.90;;;;;;6120910;23;20012;-85
2024/04/05 07:37:57;;;;;;;13.18;2.63;;;14.20;99.90;;;;;;6144388;23;20020;-78
2024/04/05 07:40:25;;;;;;;14.35;3.30;;;14.20;99.90;;;;;;6144786;23;20020;-86
2024/04/05 07:42:53;;;;;;;11.75;2.45;;;14.20;99.90;;;;;;6144612;23;20012;-80
2024/04/05 07:45:21;;;;;;;10.50;3.40;;;14.20;99.90;;;;;;6145406;23;20454;-82
2024/04/05 07:47:49;;;;;;;12.95;2.47;;;14.20;99.90;;;;;;6096345;23;20004;-84
2024/04/05 07:50:19;;;;;;;9.25;1.77;;;14.20;99.90;;;;;;6156829;23;20331;-85
2024/04/05 07:52:48;;;;;;;10.60;1.60;;;14.10;99.90;;;;;;6155820;23;20005;-80
2024/04/05 07:55:15;;;;;;;6.10;1.38;;;14.20;99.90;;;;;;6122143;23;20020;-87
2024/04/05 07:57:41;;;;;;;6.47;1.30;;;14.20;99.90;;;;;;6156479;23;20025;-81
2024/04/05 08:00:14;;;;;;;9.05;1.70;;;14.20;99.90;;;;;;6145323;23;20020;-85
2024/04/05 08:02:47;;;;;;;8.00;1.77;;;14.30;99.90;;;;;;6146267;23;20020;-84
2024/04/05 08:05:14;;;;;;;7.65;1.88;;;14.30;99.90;;;;;;6183385;23;20336;-90
2024/04/05 08:07:44;;;;;;;7.32;1.95;;;14.30;99.90;;;;;;6146852;23;20453;-84
2024/04/05 08:10:10;;;;;;;7.65;0.95;;;14.40;99.90;;;;;;6146316;23;20012;-86
2024/04/05 08:12:38;;;;;;;6.72;1.52;;;14.50;99.90;;;;;;6181376;23;20009;-86
2024/04/05 08:15:05;;;;;;;5.97;1.17;;;14.50;99.90;;;;;;6123103;23;20024;-86
2024/04/05 08:17:32;;;;;;;3.35;0.90;;;14.60;99.90;;;;;;6146148;23;20021;-85
2024/04/05 08:19:58;;;;;;;6.90;1.15;;;14.60;99.90;;;;;;6182567;23;20005;-83
2024/04/05 08:22:24;;;;;;;10.98;2.85;;;14.60;99.90;;;;;;6182397;23;20479;-82
2024/04/05 08:24:51;;;;;;;6.65;1.25;;;14.50;99.90;;;;;;6156134;23;20012;-84
2024/04/05 08:27:17;;;;;;;7.38;1.38;;;14.50;99.90;;;;;;6205905;23;20009;-83
2024/04/05 08:29:43;;;;;;;10.25;3.30;;;14.40;99.90;;;;;;6120443;23;20021;-88
2024/04/05 08:32:10;;;;;;;6.30;1.80;;;14.40;99.90;;;;;;6179652;23;20009;-81
2024/04/05 08:34:36;;;;;;;8.88;1.42;;;14.30;99.90;;;;;;6180800;23;20009;-80
2024/04/05 08:37:04;;;;;;;7.80;1.40;;;14.30;99.90;;;;;;6095653;23;20045;-82
2024/04/05 08:39:30;;;;;;;4.35;0.63;;;14.30;99.90;;;;;;6118908;23;20017;-82
2024/04/05 08:42:10;;;;;;;5.97;1.08;;;14.30;99.90;;;;;;6119866;23;20422;-81
2024/04/05 08:44:37;;;;;;;8.63;0.90;;;14.30;99.90;;;;;;6122686;23;20024;-82
2024/04/05 08:47:05;;;;;;;9.63;1.02;;;14.30;99.90;;;;;;6156454;23;20016;-81
2024/04/05 08:49:33;;;;;;;7.03;1.58;;;14.40;99.90;;;;;;6154993;23;20009;-81
2024/04/05 08:52:00;;;;;;;10.65;1.80;;;14.40;99.90;;;;;;6156203;23;20005;-82
2024/04/05 08:54:31;;;;;;;7.13;1.13;;;14.40;99.90;;;;;;6145485;23;20017;-77
2024/04/05 08:56:59;;;;;;;6.22;1.20;;;14.40;99.90;;;;;;6121077;23;20028;-80
2024/04/05 08:59:29;;;;;;;9.35;2.22;;;14.40;99.90;;;;;;6144312;23;20013;-82
2024/04/05 09:02:00;;;;;;;9.38;4.00;;;14.40;99.90;;;;;;6145079;23;20470;-83
2024/04/05 09:04:30;;;;;;;6.93;2.22;;;14.40;99.90;;;;;;6130078;23;20004;-80
2024/04/05 09:06:57;;;;;;;6.35;1.30;;;14.40;99.90;;;;;;6156063;23;20005;-80
2024/04/05 09:09:28;;;;;;;6.20;1.08;;;14.40;99.90;;;;;;6143148;23;20358;-83
2024/04/05 09:12:07;;;;;;;5.68;1.48;;;14.40;99.90;;;;;;6155258;23;20012;-81
2024/04/05 09:14:37;;;;;;;4.18;1.13;;;14.40;99.90;;;;;;6155599;23;20016;-78
2024/04/05 09:17:12;;;;;;;4.68;0.82;;;14.40;99.90;;;;;;6120894;23;20374;-79
2024/04/05 09:19:38;;;;;;;7.60;1.10;;;14.40;99.90;;;;;;6154189;23;20738;-81
2024/04/05 09:22:06;;;;;;;11.18;2.35;;;14.40;99.90;;;;;;6180577;23;20434;-80
2024/04/05 09:24:32;;;;;;;10.10;1.65;;;14.40;99.90;;;;;;6120840;23;20009;-84
2024/04/05 09:27:00;;;;;;;5.70;1.65;;;14.30;99.90;;;;;;6145645;23;20032;-78
2024/04/05 09:29:27;;;;;;;9.07;1.40;;;14.20;99.90;;;;;;6120998;23;20013;-84
2024/04/05 09:31:54;;;;;;;8.77;1.40;;;14.20;99.90;;;;;;6120535;23;20040;-79
2024/04/05 09:34:25;;;;;;;7.53;1.10;;;14.20;99.90;;;;;;6145614;23;20017;-82
2024/04/05 09:36:55;;;;;;;4.38;0.73;;;14.20;99.90;;;;;;6130954;23;20016;-80
2024/04/05 09:39:22;;;;;;;6.88;1.20;;;14.20;99.90;;;;;;6120287;23;20012;-83
2024/04/05 09:41:50;;;;;;;5.10;1.15;;;14.10;99.90;;;;;;6155710;23;20002;-82
2024/04/05 09:44:17;;;;;;;5.35;1.00;;;14.10;99.90;;;;;;6097218;23;20361;-81
2024/04/05 09:46:44;;;;;;;8.88;2.50;;;14.10;99.90;;;;;;6121351;23;20005;-76
2024/04/05 09:49:14;;;;;;;7.50;1.75;;;14.10;99.90;;;;;;6120708;23;20960;-81
2024/04/05 09:51:48;;;;;;;5.53;1.10;;;14.10;99.90;;;;;;6168749;23;20322;-80
2024/04/05 09:54:17;;;;;;;3.97;0.80;;;14.10;99.90;;;;;;6110781;23;20028;-81
2024/04/05 09:56:44;;;;;;;3.53;0.80;;;14.00;99.90;;;;;;6150608;23;20715;-78
2024/04/05 09:59:31;;;;;;;3.67;0.70;;;14.00;99.90;;;;;;6151304;23;20017;-78
2024/04/05 10:01:58;;;;;;;6.00;1.17;;;14.10;99.90;;;;;;6179773;23;20430;-81
2024/04/05 10:04:24;;;;;;;7.97;1.38;;;14.10;99.90;;;;;;6160955;23;20008;-77
2024/04/05 10:06:52;;;;;;;8.43;0.90;;;14.10;99.90;;;;;;6176172;23;20005;-76
2024/04/05 10:09:26;;;;;;;8.00;1.63;;;14.10;99.90;;;;;;6144822;23;20335;-81
2024/04/05 10:11:52;;;;;;;4.43;1.00;;;14.10;99.90;;;;;;6152485;23;20009;-81
2024/04/05 10:14:28;;;;;;;3.42;0.70;;;14.20;99.90;;;;;;6152554;23;20427;-82
2024/04/05 10:17:11;;;;;;;7.05;1.27;;;14.20;99.90;;;;;;6154554;23;20009;-80
2024/04/05 10:19:39;;;;;;;5.32;1.15;;;14.40;99.90;;;;;;6129213;23;20096;-82
2024/04/05 10:22:10;;;;;;;5.93;1.25;;;14.50;99.90;;;;;;6117852;23;20020;-78
2024/04/05 10:24:37;;;;;;;6.57;1.15;;;14.60;99.90;;;;;;6151509;23;20214;-78
2024/04/05 10:27:11;;;;;;;4.90;1.02;;;14.80;99.90;;;;;;6128397;23;20017;-84
2024/04/05 10:29:38;;;;;;;5.70;0.93;;;15.00;99.90;;;;;;6145535;23;20005;-77
2024/04/05 10:32:09;;;;;;;7.28;1.17;;;15.30;99.90;;;;;;6116839;23;20359;-80
2024/04/05 10:34:36;;;;;;;4.13;1.08;;;15.40;99.90;;;;;;6091898;23;20009;-79
2024/04/05 10:37:06;;;;;;;5.38;1.33;;;15.60;99.90;;;;;;6177065;23;20009;-83
2024/04/05 10:39:32;;;;;;;4.60;0.80;;;15.60;99.90;;;;;;6178451;23;20024;-86
2024/04/05 10:41:58;;;;;;;3.15;0.70;;;15.60;99.90;;;;;;6183099;23;20005;-83
2024/04/05 10:44:26;;;;;;;6.57;2.53;;;15.60;99.90;;;;;;6156580;23;20001;-76
2024/04/05 10:46:53;;;;;;;5.53;1.92;;;15.60;99.90;;;;;;6119596;23;20020;-76
2024/04/05 10:49:20;;;;;;;6.78;2.60;;;15.70;99.90;;;;;;6141378;23;20009;-78
2024/04/05 10:51:47;;;;;;;11.10;5.90;;;15.80;99.90;;;;;;6117115;23;20339;-78
2024/04/05 10:54:15;;;;;;;14.20;7.40;;;15.90;99.90;;;;;;6140760;23;20017;-78
2024/04/05 10:56:43;;;;;;;24.48;14.20;;;16.00;99.90;;;;;;6117259;23;20501;-77
2024/04/05 10:59:11;;;;;;;13.48;7.05;;;16.10;99.90;;;;;;6140430;23;20021;-76
2024/04/05 11:01:38;;;;;;;7.53;4.13;;;16.20;99.90;;;;;;6152277;23;20365;-78
2024/04/05 11:04:10;;;;;;;7.85;2.55;;;16.20;99.90;;;;;;6116850;23;20014;-76
2024/04/05 11:06:40;;;;;;;4.72;1.13;;;16.30;99.90;;;;;;6152289;23;20005;-75
2024/04/05 11:09:14;;;;;;;3.28;1.00;;;16.20;99.90;;;;;;6171994;23;20288;-76
2024/04/05 11:11:41;;;;;;;3.53;0.80;;;16.20;99.90;;;;;;6116563;23;20546;-76
2024/04/05 11:14:11;;;;;;;4.47;0.63;;;16.10;99.90;;;;;;6177706;23;20004;-75
2024/04/05 11:16:40;;;;;;;3.78;0.80;;;16.10;99.90;;;;;;6168868;23;20347;-72
2024/04/05 11:19:06;;;;;;;5.03;1.55;;;16.00;99.90;;;;;;6141422;23;20031;-74
2024/04/05 11:21:33;;;;;;;3.40;0.80;;;16.00;99.90;;;;;;6141261;23;20439;-74
2024/04/05 11:23:59;;;;;;;9.18;5.07;;;16.00;99.90;;;;;;6151298;23;20016;-76
2024/04/05 11:26:30;;;;;;;8.95;4.28;;;16.00;99.90;;;;;;6151937;23;20001;-79
2024/04/05 11:28:59;;;;;;;5.07;1.33;;;16.10;99.90;;;;;;6151159;23;20005;-80
2024/04/05 11:31:26;;;;;;;6.32;1.38;;;16.20;99.90;;;;;;6152078;23;20005;-77
2024/04/05 11:33:56;;;;;;;4.60;1.00;;;16.30;99.90;;;;;;6151282;23;20012;-77
2024/04/05 11:36:23;;;;;;;3.58;0.80;;;16.30;99.90;;;;;;6092835;23;20031;-77
2024/04/05 11:38:51;;;;;;;6.07;0.85;;;16.30;99.90;;;;;;6176386;23;20009;-81
2024/04/05 11:41:18;;;;;;;5.65;0.90;;;16.40;99.90;;;;;;6177259;23;20005;-78
2024/04/05 11:43:45;;;;;;;3.55;0.60;;;16.30;99.90;;;;;;6116254;23;20350;-82
2024/04/05 11:46:12;;;;;;;3.72;0.93;;;16.30;99.90;;;;;;6151480;23;20007;-78
2024/04/05 11:48:38;;;;;;;2.95;0.65;;;16.40;99.90;;;;;;6175860;23;20009;-74
2024/04/05 11:51:05;;;;;;;3.60;0.63;;;16.30;99.90;;;;;;6175574;23;20009;-78
2024/04/05 11:53:33;;;;;;;4.80;0.80;;;16.20;99.90;;;;;;6150130;23;20028;-77
2024/04/05 11:55:59;;;;;;;3.90;0.80;;;16.10;99.90;;;;;;6151851;23;20323;-80
2024/04/05 11:58:25;;;;;;;2.30;0.50;;;16.00;99.90;;;;;;6150432;23;20439;-78
2024/04/05 12:00:52;;;;;;;2.58;0.50;;;15.90;99.90;;;;;;6176642;23;20159;-78
2024/04/05 12:03:18;;;;;;;2.70;0.50;;;15.80;99.90;;;;;;6150801;23;20016;-79
2024/04/05 12:05:45;;;;;;;2.65;0.50;;;15.80;99.90;;;;;;6115435;23;20009;-82
2024/04/05 12:08:12;;;;;;;3.28;0.70;;;15.70;99.90;;;;;;6174119;23;20020;-76
2024/04/05 12:10:40;;;;;;;2.97;0.88;;;15.70;99.90;;;;;;6177458;23;20012;-76
2024/04/05 12:13:06;;;;;;;3.58;1.00;;;15.60;99.90;;;;;;6151813;23;20374;-80
2024/04/05 12:15:34;;;;;;;4.00;0.80;;;15.60;99.90;;;;;;6177826;23;20001;-82
2024/04/05 12:18:01;;;;;;;3.20;0.57;;;15.50;99.90;;;;;;6150125;23;20017;-80
2024/04/05 12:20:28;;;;;;;4.47;0.70;;;15.40;99.90;;;;;;6139839;23;20023;-76
2024/04/05 12:22:54;;;;;;;2.65;0.65;;;15.30;99.90;;;;;;6126832;23;20008;-79
2024/04/05 12:25:22;;;;;;;3.00;0.60;;;15.30;99.90;;;;;;6114926;23;20013;-78
2024/04/05 12:27:49;;;;;;;5.35;0.80;;;15.30;99.90;;;;;;6116362;23;20012;-80
2024/04/05 12:30:15;;;;;;;2.88;0.50;;;15.30;99.90;;;;;;6137051;23;20016;-80
2024/04/05 12:32:42;;;;;;;3.70;0.50;;;15.30;99.90;;;;;;6165424;23;20013;-81
2024/04/05 12:35:09;;;;;;;3.22;0.60;;;15.30;99.90;;;;;;6175721;23;20009;-80
2024/04/05 12:37:37;;;;;;;4.18;0.75;;;15.40;99.90;;;;;;6152150;23;20484;-79
2024/04/05 12:40:17;;;;;;;3.30;0.60;;;15.40;99.90;;;;;;6116902;23;20013;-80
2024/04/05 12:42:44;;;;;;;2.38;0.50;;;15.40;99.90;;;;;;6151031;23;20005;-82
2024/04/05 12:45:12;;;;;;;5.03;0.60;;;15.40;99.90;;;;;;6150130;23;20032;-81